OINR  Ramsar Airport

Add Bookmark

Iran

Status IATA
Operational RZR
Latitude Longitude
36° 54' 35" N 50° 40' 46" E
36.909901 50.679600
Local (DST + 5) UTC (GMT + 4)
Oct 30, 2014 03:42 Oct 30, 2014 12:12
Sunrise-Sunset Local UTC
Begin Civil Twilight 06:01 02:31
Sunrise 06:28 02:58
Sunset 05:13 13:43
End Civil Twilight 05:40 14:10

Current Weather

METAR Observed VFR
OINR 301100Z 34006KT 9999 FEW025CB SCT030 16/12 Q1022 Thu, Oct 30, 2014 @ 11:00 UTC
(1 Hour, 12 Minutes ago)
Visual Flight Rules
Wind Visibility Clouds Conditions
340° at 6 knots (11 kph) 10 km or more
  • Few at 2,500' AGL
  • Scattered at 3,000' AGL
  • No significant weather
Temperatures Readings Precipitation
Current Temp 16°C (61°F)
Dewpoint 12°C (54°F)
Humidity 77%
Altimeter 30.18"Hg
Sea Level Pressure 1022mb
None Recorded

Additional weather within a 92.6km radius of OINR

Map ICAO Location
OINN 75km E (111°)

24 Hour Weather History

Loading
-

24 Hour Weather Graphs

Loading
-

CheckWX.com is intended as a tool to help pilots better visualize weather data. It is not intended as a substitute for an official weather briefing obtained from a Flight Service Station. CheckWX.com does not meet the FAA requirements for an official pre-flight weather briefing. Therefore, it's important that pilots still call and obtain an official FSS pre-flight weather briefing.